Time;durP1;ratioP1;P1;durP2;ratioP2;P2;SDS_P1;SDS_P2;PMS_P1;PMS_P2;Temp;Humidity;BMP_temperature;BMP_pressure;BME280_temperature;BME280_humidity;BME280_pressure;Samples;Min_cycle;Max_cycle;Signal;HPM_P1;HPM_P2
2022/10/15 00:01:15;;;;;;;13.95;6.82;;;;;;;6.12;70.12;100257.78;6228696;22;20069;-73
2022/10/15 00:03:40;;;;;;;;;;;;;;;6.31;68.56;100252.56;6229428;22;20019;-72
2022/10/15 00:06:08;;;;;;;11.25;6.53;;;;;;;6.15;68.91;100260.31;6244322;22;19937;-72
2022/10/15 00:08:33;;;;;;;11.40;6.95;;;;;;;5.99;69.70;100259.25;6233013;22;20019;-71
2022/10/15 00:11:22;;;;;;;14.35;6.55;;;;;;;5.95;69.74;100253.25;6229149;22;20022;-72
2022/10/15 00:13:48;;;;;;;12.15;6.80;;;;;;;5.93;70.63;100257.75;6229853;22;20019;-73
2022/10/15 00:16:16;;;;;;;14.18;6.47;;;;;;;5.98;70.90;100260.19;6230892;22;20024;-76
2022/10/15 00:18:41;;;;;;;10.65;6.55;;;;;;;6.03;70.64;100272.28;6232770;22;20020;-74
2022/10/15 00:21:08;;;;;;;12.13;6.88;;;;;;;6.10;70.58;100271.09;6229271;22;20015;-72
2022/10/15 00:23:32;;;;;;;11.43;6.32;;;;;;;6.16;70.50;100260.25;6229206;22;20470;-73
2022/10/15 00:26:09;;;;;;;16.15;6.80;;;;;;;6.29;69.82;100257.06;6228312;22;20451;-73
2022/10/15 00:28:33;;;;;;;10.95;6.63;;;;;;;6.19;69.19;100261.91;6204659;22;20016;-73
2022/10/15 00:31:00;;;;;;;10.45;5.95;;;;;;;6.16;69.13;100260.25;6204655;22;20077;-70
2022/10/15 00:33:25;;;;;;;10.00;6.53;;;;;;;6.07;69.41;100262.44;6229919;22;20026;-72
2022/10/15 00:36:00;;;;;;;9.68;6.50;;;;;;;6.07;70.46;100262.44;6231958;22;20328;-72
2022/10/15 00:38:26;;;;;;;7.95;5.90;;;;;;;6.05;70.12;100257.22;6230956;22;20022;-72
2022/10/15 00:40:51;;;;;;;11.52;7.28;;;;;;;6.04;70.08;100251.97;6204447;22;20015;-71
2022/10/15 00:43:15;;;;;;;12.70;6.88;;;;;;;6.07;69.89;100249.22;6231242;22;20019;-77
2022/10/15 00:45:41;;;;;;;8.40;6.05;;;;;;;6.00;70.09;100243.31;6233335;22;20022;-71
2022/10/15 00:48:07;;;;;;;12.13;6.93;;;;;;;6.08;69.84;100248.28;6231171;22;20012;-75
2022/10/15 00:50:32;;;;;;;10.10;6.53;;;;;;;6.02;69.91;100251.19;6230465;22;20026;-75
2022/10/15 00:53:08;;;;;;;10.60;5.82;;;;;;;6.10;70.53;100255.22;6231074;22;20475;-76
2022/10/15 00:55:37;;;;;;;11.52;6.47;;;;;;;6.11;70.36;100250.78;6230997;22;20030;-74
2022/10/15 00:58:12;;;;;;;9.52;5.82;;;;;;;6.19;69.94;100249.53;6230606;22;20015;-73
2022/10/15 01:00:37;;;;;;;12.95;7.05;;;;;;;6.19;69.90;100257.47;6229230;22;20016;-71
2022/10/15 01:03:02;;;;;;;10.48;5.80;;;;;;;6.22;69.69;100259.09;6231961;22;20015;-76
2022/10/15 01:05:27;;;;;;;12.27;6.45;;;;;;;6.25;69.45;100255.47;6230804;22;20012;-74
2022/10/15 01:07:52;;;;;;;11.18;6.53;;;;;;;6.28;69.51;100253.56;6229391;22;20050;-71
2022/10/15 01:10:18;;;;;;;9.05;5.43;;;;;;;6.31;69.89;100253.44;6229974;22;20015;-73
2022/10/15 01:13:06;;;;;;;10.60;5.68;;;;;;;6.40;69.32;100262.75;6230867;22;20090;-70
2022/10/15 01:16:07;;;;;;;13.00;6.22;;;;;;;6.47;69.28;100264.19;6230274;22;20026;-72
2022/10/15 01:18:35;;;;;;;11.15;5.32;;;;;;;6.46;69.18;100260.69;6193556;22;20023;-69
2022/10/15 01:21:16;;;;;;;9.57;5.93;;;;;;;6.52;70.05;100255.13;6230529;22;20768;-73
2022/10/15 01:23:56;;;;;;;10.70;6.35;;;;;;;6.58;70.14;100264.56;6228164;22;20066;-68
2022/10/15 01:26:34;;;;;;;11.63;6.25;;;;;;;6.62;69.36;100265.28;6202997;22;20020;-68
2022/10/15 01:29:18;;;;;;;9.52;5.28;;;;;;;6.67;69.82;100263.28;6230960;22;20094;-72
2022/10/15 01:31:48;;;;;;;6.88;5.43;;;;;;;6.65;69.36;100268.69;6198892;22;20032;-71
2022/10/15 01:34:37;;;;;;;10.05;6.13;;;;;;;6.71;69.19;100270.16;6227739;22;20107;-73
2022/10/15 01:37:34;;;;;;;8.20;5.45;;;;;;;6.71;68.96;100264.88;6230573;22;20022;-72
2022/10/15 01:40:05;;;;;;;10.38;5.43;;;;;;;6.73;68.39;100277.13;6083924;23;20018;-76
2022/10/15 01:42:44;;;;;;;9.88;6.30;;;;;;;6.67;68.40;100274.75;6086021;23;20021;-80
2022/10/15 01:45:17;;;;;;;9.05;5.22;;;;;;;6.62;68.37;100274.09;6037881;23;20041;-76
2022/10/15 01:48:10;;;;;;;10.38;5.70;;;;;;;6.65;68.74;100273.13;6064783;23;20020;-79
2022/10/15 01:50:43;;;;;;;10.32;6.05;;;;;;;6.67;68.05;100277.38;6110510;23;20092;-78
2022/10/15 01:53:10;;;;;;;12.98;5.30;;;;;;;6.59;67.88;100268.06;6109995;23;20021;-70
2022/10/15 01:55:41;;;;;;;8.52;5.57;;;;;;;6.56;68.86;100279.66;6084852;23;20349;-73
2022/10/15 01:58:07;;;;;;;14.93;5.90;;;;;;;6.56;69.05;100277.00;6110384;23;20071;-77
2022/10/15 02:00:33;;;;;;;8.52;5.55;;;;;;;6.59;69.33;100271.59;6061822;23;20017;-75
2022/10/15 02:03:01;;;;;;;7.97;5.30;;;;;;;6.61;68.56;100280.31;6060649;23;20112;-72
2022/10/15 02:05:34;;;;;;;11.43;6.70;;;;;;;6.63;68.78;100281.13;6110037;23;20019;-74
2022/10/15 02:08:43;;;;;;;10.63;5.80;;;;;;;6.67;68.70;100284.47;6109636;23;20084;-75
2022/10/15 02:11:12;;;;;;;9.25;5.28;;;;;;;6.65;68.61;100271.31;6105348;23;20101;-76
2022/10/15 02:13:40;;;;;;;9.18;5.60;;;;;;;6.69;68.04;100279.97;6085455;23;20366;-76
2022/10/15 02:16:37;;;;;;;7.65;4.85;;;;;;;6.70;67.82;100287.84;6189641;22;20019;-74
2022/10/15 02:19:11;;;;;;;10.27;5.90;;;;;;;6.71;68.27;100286.06;6231970;22;20342;-75
2022/10/15 02:21:42;;;;;;;6.95;4.80;;;;;;;6.72;68.41;100283.34;6231657;22;20016;-72
2022/10/15 02:24:22;;;;;;;12.88;6.40;;;;;;;6.79;67.51;100295.38;6241336;22;20016;-72
2022/10/15 02:26:50;;;;;;;10.18;5.75;;;;;;;6.70;67.44;100285.19;6232011;22;20018;-74
2022/10/15 02:29:18;;;;;;;10.60;5.70;;;;;;;6.67;67.83;100290.63;6233215;22;20019;-74
2022/10/15 02:31:45;;;;;;;7.80;5.10;;;;;;;6.64;67.72;100285.50;6232181;22;20028;-74
2022/10/15 02:34:15;;;;;;;9.35;5.30;;;;;;;6.63;67.81;100291.72;6232128;22;20021;-75
2022/10/15 02:36:40;;;;;;;8.82;4.90;;;;;;;6.64;67.88;100296.09;6229676;22;20020;-71
2022/10/15 02:39:06;;;;;;;11.45;6.45;;;;;;;6.67;68.53;100303.03;6230780;22;20094;-82
2022/10/15 02:41:34;;;;;;;8.80;5.78;;;;;;;6.72;67.80;100293.09;6203378;22;20031;-76
2022/10/15 02:43:59;;;;;;;10.93;5.47;;;;;;;6.70;67.84;100295.81;6229266;22;20402;-77
2022/10/15 02:46:24;;;;;;;9.27;6.15;;;;;;;6.70;67.62;100303.75;6231367;22;20670;-80
2022/10/15 02:48:48;;;;;;;9.30;5.57;;;;;;;6.69;67.89;100302.03;6230048;22;20019;-77
2022/10/15 02:51:15;;;;;;;8.52;5.80;;;;;;;6.68;67.38;100302.09;6203091;22;20130;-80
2022/10/15 02:53:40;;;;;;;9.45;5.57;;;;;;;6.67;67.92;100303.03;6228553;22;20047;-78
2022/10/15 02:56:05;;;;;;;20.27;6.85;;;;;;;6.68;68.18;100300.31;6229640;22;20015;-73
2022/10/15 02:58:30;;;;;;;9.95;5.88;;;;;;;6.70;67.99;100306.41;6229387;22;20018;-74
2022/10/15 03:00:57;;;;;;;11.93;6.18;;;;;;;6.69;68.52;100306.47;6229769;22;20015;-75
2022/10/15 03:03:22;;;;;;;8.75;5.70;;;;;;;6.71;67.67;100302.81;6228816;22;20069;-72
2022/10/15 03:05:46;;;;;;;16.60;5.85;;;;;;;6.67;67.91;100310.97;6229439;22;20018;-77
2022/10/15 03:08:12;;;;;;;10.85;5.97;;;;;;;6.59;67.44;100307.81;6180932;22;20117;-78
2022/10/15 03:10:37;;;;;;;11.55;5.90;;;;;;;6.52;68.14;100308.09;6204596;22;20015;-71
2022/10/15 03:13:03;;;;;;;10.18;5.75;;;;;;;6.51;67.89;100316.97;6231704;22;20022;-71
2022/10/15 03:15:30;;;;;;;10.60;6.38;;;;;;;6.52;68.31;100309.88;6203124;22;20023;-71
2022/10/15 03:17:55;;;;;;;14.65;5.47;;;;;;;6.52;67.91;100315.19;6229072;22;20062;-74
2022/10/15 03:20:20;;;;;;;14.70;6.43;;;;;;;6.51;68.51;100316.09;6227478;22;20019;-71
2022/10/15 03:22:44;;;;;;;11.45;5.88;;;;;;;6.51;67.84;100311.66;6177201;22;20015;-73
2022/10/15 03:25:09;;;;;;;7.35;5.00;;;;;;;6.54;68.08;100321.28;6227741;22;20404;-72
2022/10/15 03:27:36;;;;;;;8.02;5.57;;;;;;;6.56;68.33;100314.09;6227732;22;20450;-69
2022/10/15 03:30:07;;;;;;;8.30;5.43;;;;;;;6.59;67.69;100307.81;6227420;22;20043;-70
2022/10/15 03:32:32;;;;;;;10.65;5.78;;;;;;;6.59;67.83;100308.66;6202417;22;20022;-71
2022/10/15 03:34:57;;;;;;;7.53;5.57;;;;;;;6.61;67.67;100312.13;6226922;22;20019;-70
2022/10/15 03:37:22;;;;;;;13.50;5.97;;;;;;;6.64;67.90;100308.47;6227379;22;20019;-70
2022/10/15 03:39:46;;;;;;;8.50;5.75;;;;;;;6.60;67.46;100312.19;6227177;22;20019;-69
2022/10/15 03:42:13;;;;;;;9.90;5.38;;;;;;;6.59;67.85;100310.47;6227732;22;20019;-70
2022/10/15 03:44:43;;;;;;;8.57;5.25;;;;;;;6.61;67.89;100311.25;6228687;22;20015;-70
2022/10/15 03:47:10;;;;;;;9.02;4.90;;;;;;;6.61;67.35;100312.13;6227130;22;20011;-69
2022/10/15 03:49:43;;;;;;;8.48;4.60;;;;;;;6.63;67.38;100314.72;6178439;22;20026;-69
2022/10/15 03:52:08;;;;;;;10.95;5.55;;;;;;;6.63;67.21;100312.91;6227208;22;20019;-70
2022/10/15 03:54:33;;;;;;;8.93;5.03;;;;;;;6.62;67.70;100312.97;6227224;22;20218;-71
2022/10/15 03:56:58;;;;;;;8.15;5.90;;;;;;;6.63;67.84;100312.91;6226772;22;20084;-71
2022/10/15 03:59:29;;;;;;;10.43;5.88;;;;;;;6.64;67.19;100314.63;6226998;22;20020;-69
2022/10/15 04:01:57;;;;;;;11.52;5.72;;;;;;;6.65;67.69;100311.06;6227255;22;20019;-70
2022/10/15 04:04:21;;;;;;;11.40;5.68;;;;;;;6.67;67.30;100314.47;6201235;22;20073;-69
2022/10/15 04:06:46;;;;;;;7.88;5.43;;;;;;;6.70;67.63;100310.84;6227592;22;20016;-70
2022/10/15 04:09:14;;;;;;;9.75;6.47;;;;;;;6.71;67.30;100318.72;6226913;22;20049;-71
2022/10/15 04:11:39;;;;;;;9.70;5.55;;;;;;;6.73;66.75;100313.34;6201500;22;20016;-72
2022/10/15 04:14:05;;;;;;;11.73;6.13;;;;;;;6.75;67.11;100324.75;6227228;22;20031;-71
2022/10/15 04:16:31;;;;;;;11.57;6.07;;;;;;;6.73;66.81;100322.16;6226946;22;20015;-71
2022/10/15 04:18:57;;;;;;;7.88;5.63;;;;;;;6.67;66.41;100322.44;6227453;22;20020;-72
2022/10/15 04:21:22;;;;;;;10.15;5.32;;;;;;;6.66;67.46;100320.69;6227395;22;20125;-71
2022/10/15 04:23:53;;;;;;;14.77;5.75;;;;;;;6.66;67.26;100318.06;6201883;22;20016;-72
2022/10/15 04:26:27;;;;;;;9.13;6.00;;;;;;;6.69;67.37;100319.72;6178597;22;20111;-73
2022/10/15 04:28:52;;;;;;;8.07;5.70;;;;;;;6.70;66.92;100332.03;6226777;22;20078;-71
2022/10/15 04:31:18;;;;;;;10.25;5.05;;;;;;;6.71;66.70;100320.50;6201046;22;20077;-71
2022/10/15 04:33:48;;;;;;;10.65;5.45;;;;;;;6.74;67.34;100323.91;6204518;22;20016;-71
2022/10/15 04:36:13;;;;;;;9.48;5.30;;;;;;;6.76;66.87;100316.75;6229774;22;20019;-71
2022/10/15 04:38:57;;;;;;;;;;;;;;;6.97;66.96;100325.50;6226814;22;20116;-72
2022/10/15 04:41:42;;;;;;;11.18;5.38;;;;;;;6.88;66.42;100331.22;6237224;22;19911;-73
2022/10/15 04:44:20;;;;;;;10.80;5.78;;;;;;;6.88;66.42;100337.34;6227945;22;20043;-72
2022/10/15 04:46:53;;;;;;;10.38;6.00;;;;;;;6.90;66.42;100332.84;6177896;22;20208;-71
2022/10/15 04:49:38;;;;;;;;;;;;;;;7.10;65.93;100325.81;6230536;22;20073;-71
2022/10/15 04:52:12;;;;;;;12.27;5.07;;;;;;;6.99;66.27;100328.94;6237516;22;19994;-70
2022/10/15 04:54:48;;;;;;;10.00;5.40;;;;;;;7.00;65.79;100329.81;6226718;22;20402;-71
2022/10/15 04:57:12;;;;;;;12.55;6.13;;;;;;;6.99;65.74;100326.31;6227252;22;20394;-70
2022/10/15 04:59:37;;;;;;;11.80;5.80;;;;;;;7.04;66.34;100337.53;6228695;22;20023;-70
2022/10/15 05:02:20;;;;;;;8.02;5.38;;;;;;;7.07;65.93;100337.41;6226603;22;20047;-70
2022/10/15 05:04:51;;;;;;;13.73;6.05;;;;;;;7.13;66.03;100350.34;6226797;22;20098;-70
2022/10/15 05:07:16;;;;;;;10.93;6.10;;;;;;;7.18;65.66;100340.41;6228500;22;20039;-70
2022/10/15 05:09:41;;;;;;;10.20;6.13;;;;;;;7.23;65.38;100340.19;6200917;22;20043;-70
2022/10/15 05:12:06;;;;;;;9.75;5.90;;;;;;;7.28;65.89;100346.16;6226989;22;20038;-73
2022/10/15 05:14:30;;;;;;;15.30;6.65;;;;;;;7.32;65.27;100337.13;6228222;22;20012;-70
2022/10/15 05:17:09;;;;;;;13.65;6.22;;;;;;;7.36;65.51;100338.69;6205898;22;20039;-70
2022/10/15 05:19:38;;;;;;;12.38;6.28;;;;;;;7.41;65.62;100349.94;6203104;22;20019;-70
2022/10/15 05:22:03;;;;;;;11.52;5.53;;;;;;;7.45;65.74;100340.88;6228255;22;20043;-71
2022/10/15 05:24:29;;;;;;;9.10;5.40;;;;;;;7.50;64.82;100338.03;6228676;22;20019;-71
2022/10/15 05:26:58;;;;;;;19.42;6.40;;;;;;;7.44;62.67;100341.84;6228424;22;20094;-72
2022/10/15 05:29:26;;;;;;;12.48;5.28;;;;;;;7.48;62.40;100340.75;6228659;22;20047;-72
2022/10/15 05:31:51;;;;;;;10.13;5.53;;;;;;;7.49;62.57;100333.66;6229152;22;20073;-71
2022/10/15 05:34:19;;;;;;;9.50;4.95;;;;;;;7.48;61.93;100338.09;6228948;22;20026;-71
2022/10/15 05:36:50;;;;;;;12.55;5.43;;;;;;;7.50;62.09;100336.25;6228462;22;20338;-70
2022/10/15 05:39:15;;;;;;;10.55;5.13;;;;;;;7.54;61.77;100342.28;6230150;22;20073;-70
2022/10/15 05:41:42;;;;;;;10.43;4.38;;;;;;;7.60;61.20;100344.63;6228085;22;20019;-70
2022/10/15 05:44:06;;;;;;;12.35;5.53;;;;;;;7.64;61.22;100344.41;6229023;22;20073;-71
2022/10/15 05:46:31;;;;;;;10.77;6.38;;;;;;;7.72;62.35;100346.69;6228414;22;20324;-72
2022/10/15 05:48:57;;;;;;;10.80;5.70;;;;;;;7.74;62.39;100355.44;6228677;22;20332;-71
2022/10/15 05:51:24;;;;;;;10.93;5.85;;;;;;;7.79;62.94;100358.72;6228922;22;20015;-71
2022/10/15 05:53:56;;;;;;;13.07;6.13;;;;;;;7.82;63.08;100352.41;6228938;22;20016;-72
2022/10/15 05:56:22;;;;;;;12.88;5.97;;;;;;;7.85;63.33;100361.09;6203543;22;20020;-74
2022/10/15 05:58:47;;;;;;;10.90;6.28;;;;;;;7.87;63.03;100361.88;6228528;22;20439;-74
2022/10/15 06:01:12;;;;;;;16.55;6.50;;;;;;;7.83;62.64;100354.97;6227523;22;20536;-74
2022/10/15 06:03:40;;;;;;;17.65;7.53;;;;;;;7.71;62.53;100360.03;6229972;22;20073;-73
2022/10/15 06:06:12;;;;;;;11.70;6.93;;;;;;;7.66;63.13;100357.59;6228402;22;20093;-73
2022/10/15 06:08:37;;;;;;;12.30;6.75;;;;;;;7.52;63.29;100354.75;6196129;23;20016;-72
2022/10/15 06:11:03;;;;;;;12.88;7.45;;;;;;;7.50;63.51;100360.13;6171247;23;20086;-74
2022/10/15 06:13:27;;;;;;;10.30;6.47;;;;;;;7.53;62.97;100357.31;6196441;23;20015;-70
2022/10/15 06:15:52;;;;;;;28.67;9.52;;;;;;;7.41;63.11;100362.34;6146386;23;20019;-72
2022/10/15 06:18:16;;;;;;;12.20;6.63;;;;;;;7.34;63.75;100367.06;6171191;23;20052;-71
2022/10/15 06:20:42;;;;;;;12.50;5.88;;;;;;;7.37;63.97;100361.63;6196889;23;20095;-71
2022/10/15 06:23:09;;;;;;;9.38;5.82;;;;;;;7.45;63.36;100359.47;6197086;23;20107;-71
2022/10/15 06:25:33;;;;;;;10.48;6.28;;;;;;;7.41;63.59;100359.69;6196445;23;20363;-71
2022/10/15 06:28:02;;;;;;;13.27;6.20;;;;;;;7.45;64.19;100358.63;6171150;23;20375;-71
2022/10/15 06:30:33;;;;;;;8.77;4.78;;;;;;;7.51;62.67;100360.97;6196398;23;20434;-70
2022/10/15 06:32:58;;;;;;;11.65;5.20;;;;;;;7.54;62.52;100356.41;6199487;23;20526;-71
2022/10/15 06:35:23;;;;;;;8.82;4.97;;;;;;;7.60;62.37;100364.06;6203426;23;20027;-70
2022/10/15 06:37:48;;;;;;;9.35;4.90;;;;;;;7.65;62.51;100372.66;6196843;23;20027;-72
2022/10/15 06:40:14;;;;;;;9.80;5.30;;;;;;;7.71;61.84;100357.38;6223650;22;20027;-71
2022/10/15 06:42:40;;;;;;;10.32;4.90;;;;;;;7.75;61.35;100358.94;6232557;22;20073;-70
2022/10/15 06:45:06;;;;;;;12.10;5.07;;;;;;;7.82;61.32;100355.06;6233834;22;20102;-71
2022/10/15 06:47:31;;;;;;;9.73;5.32;;;;;;;7.82;60.61;100368.31;6231548;22;20466;-72
2022/10/15 06:49:56;;;;;;;11.00;5.70;;;;;;;7.86;60.84;100364.59;6230412;22;20451;-70
2022/10/15 06:52:21;;;;;;;10.13;4.90;;;;;;;7.91;60.86;100371.38;6230606;22;20090;-70
2022/10/15 06:54:46;;;;;;;9.80;5.53;;;;;;;7.95;60.32;100372.09;6231800;22;20015;-70
2022/10/15 06:57:11;;;;;;;7.82;5.70;;;;;;;7.95;60.09;100372.09;6235102;22;20023;-70
2022/10/15 06:59:36;;;;;;;9.60;6.28;;;;;;;7.97;60.39;100375.56;6229613;22;20042;-69
2022/10/15 07:02:01;;;;;;;12.55;5.70;;;;;;;7.96;60.28;100372.03;6204098;22;20019;-70
2022/10/15 07:04:27;;;;;;;12.43;6.13;;;;;;;7.98;60.00;100377.28;6229347;22;20474;-72
2022/10/15 07:06:52;;;;;;;9.85;5.15;;;;;;;7.97;60.01;100380.84;6229270;22;20018;-73
2022/10/15 07:09:18;;;;;;;12.50;5.22;;;;;;;7.99;60.54;100381.66;6229537;22;20429;-73
2022/10/15 07:11:42;;;;;;;10.20;4.90;;;;;;;8.02;59.45;100378.81;6229145;22;20023;-72
2022/10/15 07:14:07;;;;;;;8.60;4.97;;;;;;;8.04;59.63;100379.59;6230108;22;20015;-72
2022/10/15 07:16:31;;;;;;;17.63;5.90;;;;;;;8.08;59.14;100381.19;6227608;22;20031;-73
2022/10/15 07:18:56;;;;;;;10.88;5.60;;;;;;;8.13;59.23;100384.47;6229117;22;20023;-72
2022/10/15 07:21:21;;;;;;;8.35;4.72;;;;;;;8.16;58.85;100376.34;6202355;22;20433;-73
2022/10/15 07:23:45;;;;;;;6.10;4.68;;;;;;;8.19;59.02;100380.66;6227956;22;20015;-73
2022/10/15 07:26:11;;;;;;;10.07;5.18;;;;;;;8.11;58.38;100386.34;6227714;22;20015;-73
2022/10/15 07:28:36;;;;;;;6.68;5.18;;;;;;;8.19;58.75;100388.63;6202914;22;20146;-71
2022/10/15 07:31:03;;;;;;;9.95;4.88;;;;;;;8.21;58.58;100386.75;6232058;22;20055;-72
2022/10/15 07:33:28;;;;;;;7.28;4.78;;;;;;;8.28;58.53;100394.34;6243949;22;20015;-73
2022/10/15 07:35:57;;;;;;;7.25;4.38;;;;;;;8.37;58.28;100393.91;6246737;22;20021;-72
2022/10/15 07:38:22;;;;;;;13.40;4.93;;;;;;;8.39;58.54;100393.81;6245149;22;20104;-72
2022/10/15 07:40:47;;;;;;;8.70;5.68;;;;;;;8.40;58.20;100389.38;6245630;22;20026;-71
2022/10/15 07:43:12;;;;;;;7.32;4.88;;;;;;;8.43;58.20;100392.75;6231336;22;20019;-72
2022/10/15 07:45:38;;;;;;;10.88;5.38;;;;;;;8.44;58.25;100404.22;6229905;22;20409;-71
2022/10/15 07:48:03;;;;;;;10.15;4.72;;;;;;;8.50;57.79;100399.44;6229404;22;20016;-73
2022/10/15 07:50:28;;;;;;;8.00;4.78;;;;;;;8.50;58.24;100398.59;6228544;22;20047;-73
2022/10/15 07:52:58;;;;;;;10.73;5.13;;;;;;;8.59;57.78;100398.13;6229325;22;20313;-73
2022/10/15 07:55:23;;;;;;;18.70;5.38;;;;;;;8.53;58.27;100401.97;6229065;22;20473;-73
2022/10/15 07:57:48;;;;;;;23.98;11.50;;;;;;;8.56;57.73;100403.63;6227017;22;20011;-73
2022/10/15 08:00:12;;;;;;;14.95;5.97;;;;;;;8.65;57.29;100405.78;6228748;22;20019;-71
2022/10/15 08:02:37;;;;;;;13.52;7.43;;;;;;;8.72;57.25;100405.38;6227703;22;20015;-72
2022/10/15 08:05:02;;;;;;;28.77;6.20;;;;;;;8.72;57.33;100400.06;6233800;22;20098;-71
2022/10/15 08:07:27;;;;;;;9.82;5.65;;;;;;;8.77;57.42;100401.63;6240489;22;20488;-71
2022/10/15 08:09:52;;;;;;;10.85;4.95;;;;;;;8.85;57.10;100408.28;6236609;22;20362;-74
2022/10/15 08:12:17;;;;;;;9.02;5.38;;;;;;;8.85;56.64;100415.38;6242697;22;20091;-73
2022/10/15 08:14:41;;;;;;;12.70;5.70;;;;;;;8.90;56.79;100400.94;6246442;22;20051;-75
2022/10/15 08:17:06;;;;;;;8.50;4.70;;;;;;;8.96;56.68;100402.38;6246856;22;20073;-73
2022/10/15 08:19:32;;;;;;;8.80;4.68;;;;;;;9.03;56.85;100414.41;6241830;22;20047;-72
2022/10/15 08:21:57;;;;;;;8.52;5.82;;;;;;;9.04;56.36;100409.00;6241730;22;20370;-73
2022/10/15 08:24:22;;;;;;;16.33;4.63;;;;;;;9.08;56.29;100407.91;6236771;22;20391;-75
2022/10/15 08:26:48;;;;;;;12.10;5.05;;;;;;;9.19;56.11;100407.34;6233140;22;20011;-74
2022/10/15 08:29:12;;;;;;;12.45;5.38;;;;;;;9.29;55.45;100411.22;6231963;22;20351;-72
2022/10/15 08:31:38;;;;;;;7.65;4.60;;;;;;;9.32;55.34;100415.53;6229808;22;20023;-73
2022/10/15 08:34:03;;;;;;;12.10;5.30;;;;;;;9.38;55.34;100416.03;6230277;22;20074;-72
2022/10/15 08:36:29;;;;;;;8.70;5.05;;;;;;;9.39;55.50;100412.44;6228520;22;20104;-73
2022/10/15 08:38:54;;;;;;;7.82;5.18;;;;;;;9.34;54.71;100421.63;6228867;22;20024;-73
2022/10/15 08:41:40;;;;;;;6.95;4.43;;;;;;;9.34;55.00;100419.84;6229011;22;20026;-73
2022/10/15 08:44:13;;;;;;;10.38;4.97;;;;;;;9.29;55.07;100413.03;6228695;22;20390;-72
2022/10/15 08:46:42;;;;;;;9.77;5.32;;;;;;;9.26;55.52;100419.38;6227747;22;20022;-73
2022/10/15 08:49:33;;;;;;;8.57;5.10;;;;;;;9.26;55.65;100415.84;6232211;22;20039;-73
2022/10/15 08:52:20;;;;;;;8.55;4.50;;;;;;;9.26;55.42;100416.72;6230622;22;20089;-73
2022/10/15 08:54:44;;;;;;;10.40;5.25;;;;;;;9.28;55.30;100413.97;6206227;22;20015;-74
2022/10/15 08:57:21;;;;;;;10.88;4.47;;;;;;;9.48;55.51;100412.91;6205663;22;20099;-74
2022/10/15 09:00:01;;;;;;;6.90;4.28;;;;;;;9.57;54.84;100418.59;6231296;22;20020;-74
2022/10/15 09:02:33;;;;;;;7.90;4.72;;;;;;;9.59;54.11;100418.50;6230956;22;20026;-74
2022/10/15 09:05:20;;;;;;;8.32;4.97;;;;;;;9.69;54.14;100417.91;6229368;22;20057;-74
2022/10/15 09:08:09;;;;;;;6.97;4.63;;;;;;;9.75;54.20;100412.22;6229234;22;20031;-74
2022/10/15 09:10:50;;;;;;;9.13;5.25;;;;;;;9.74;54.55;100409.66;6230727;22;20030;-72
2022/10/15 09:13:42;;;;;;;10.55;6.00;;;;;;;9.55;54.24;100400.97;6229389;22;20019;-72
2022/10/15 09:16:23;;;;;;;11.82;6.00;;;;;;;9.59;55.00;100406.06;6230620;22;20023;-72
2022/10/15 09:18:51;;;;;;;9.73;5.22;;;;;;;9.59;53.94;100413.19;6230348;22;20054;-71
2022/10/15 09:21:16;;;;;;;11.85;6.60;;;;;;;9.55;54.51;100401.84;6230987;22;20015;-71
2022/10/15 09:23:43;;;;;;;13.20;5.50;;;;;;;9.56;54.60;100411.53;6230770;22;20023;-72
2022/10/15 09:26:10;;;;;;;11.23;6.28;;;;;;;9.60;54.11;100402.41;6230422;22;20011;-72
2022/10/15 09:28:46;;;;;;;11.73;6.72;;;;;;;9.56;54.32;100406.22;6230408;22;20498;-72
2022/10/15 09:31:15;;;;;;;10.65;5.32;;;;;;;9.55;54.62;100411.63;6178170;22;20459;-73
2022/10/15 09:33:53;;;;;;;23.52;7.75;;;;;;;9.65;55.03;100413.69;6228784;22;20329;-74
2022/10/15 09:36:36;;;;;;;10.32;6.80;;;;;;;9.67;54.05;100401.16;6230585;22;20026;-73
2022/10/15 09:39:25;;;;;;;8.43;5.20;;;;;;;9.69;54.33;100409.91;6202143;22;20027;-72
2022/10/15 09:42:29;;;;;;;16.50;6.20;;;;;;;9.82;53.97;100407.41;6228435;22;20020;-71
2022/10/15 09:45:01;;;;;;;9.18;5.28;;;;;;;9.84;53.58;100416.16;6228224;22;20406;-75
2022/10/15 09:47:31;;;;;;;8.93;5.37;;;;;;;9.93;53.19;100407.66;6230023;22;20015;-73
2022/10/15 09:50:02;;;;;;;9.63;5.18;;;;;;;9.85;53.51;100417.91;6229262;22;20015;-73
2022/10/15 09:52:40;;;;;;;10.57;5.63;;;;;;;9.86;54.05;100416.09;6228622;22;20016;-72
2022/10/15 09:55:26;;;;;;;9.10;5.57;;;;;;;9.82;53.82;100410.94;6227417;22;20027;-73
2022/10/15 09:57:54;;;;;;;11.25;5.93;;;;;;;9.78;53.88;100409.41;6227110;22;20071;-72
2022/10/15 10:00:21;;;;;;;11.10;6.43;;;;;;;9.58;54.44;100409.66;6226795;22;20065;-72
2022/10/15 10:03:06;;;;;;;17.20;6.00;;;;;;;9.52;55.27;100422.44;6229154;22;20446;-72
2022/10/15 10:05:35;;;;;;;8.82;5.72;;;;;;;9.52;54.66;100407.31;6228983;22;20019;-74
2022/10/15 10:08:21;;;;;;;11.30;5.45;;;;;;;9.39;55.15;100412.44;6227651;22;20016;-74
2022/10/15 10:10:58;;;;;;;17.17;5.68;;;;;;;9.37;55.40;100409.00;6229284;22;20095;-73
2022/10/15 10:13:54;;;;;;;14.63;6.13;;;;;;;9.46;55.60;100413.00;6229002;22;20026;-73
2022/10/15 10:16:20;;;;;;;12.25;5.72;;;;;;;9.52;54.95;100417.09;6229858;22;20086;-73
2022/10/15 10:19:13;;;;;;;12.70;6.35;;;;;;;9.66;55.13;100412.75;6228812;22;20114;-73
2022/10/15 10:21:41;;;;;;;12.73;5.85;;;;;;;9.71;54.53;100417.78;6230056;22;20027;-72
2022/10/15 10:24:36;;;;;;;8.43;5.10;;;;;;;9.80;54.93;100417.31;6229832;22;20046;-72
2022/10/15 10:27:21;;;;;;;6.90;4.93;;;;;;;9.83;54.64;100412.66;6110106;23;20020;-73
2022/10/15 10:30:01;;;;;;;8.30;5.35;;;;;;;9.81;54.34;100417.22;6109988;23;20021;-72
2022/10/15 10:32:34;;;;;;;11.68;5.70;;;;;;;9.79;54.56;100426.25;6108840;23;20084;-73
2022/10/15 10:35:01;;;;;;;7.43;5.05;;;;;;;9.79;54.23;100419.13;6107980;23;20029;-74
2022/10/15 10:37:28;;;;;;;12.88;5.03;;;;;;;9.86;54.26;100418.75;6057961;23;20647;-73
2022/10/15 10:39:58;;;;;;;8.48;5.10;;;;;;;9.91;54.07;100414.03;6106988;23;20393;-72
2022/10/15 10:42:26;;;;;;;8.95;5.45;;;;;;;9.92;54.35;100410.44;6082374;23;20108;-73
2022/10/15 10:44:52;;;;;;;10.75;5.15;;;;;;;9.96;53.64;100414.63;6106372;23;20567;-72
2022/10/15 10:47:24;;;;;;;8.82;5.53;;;;;;;9.98;54.15;100413.59;6082600;23;20100;-71
2022/10/15 10:49:56;;;;;;;12.07;5.43;;;;;;;10.01;53.89;100415.25;6107089;23;20081;-70
2022/10/15 10:52:30;;;;;;;11.82;5.32;;;;;;;10.09;53.59;100419.19;6081963;23;20022;-67
2022/10/15 10:55:01;;;;;;;;;;;;;;;10.24;53.06;100411.28;6107729;23;20021;-68
2022/10/15 10:57:42;;;;;;;9.52;5.05;;;;;;;10.26;53.88;100406.72;6085151;23;19922;-68
2022/10/15 11:00:11;;;;;;;7.65;5.05;;;;;;;10.28;53.21;100412.81;6082040;23;20050;-70
2022/10/15 11:02:40;;;;;;;10.60;6.05;;;;;;;10.39;52.70;100405.91;6125858;22;20450;-70
2022/10/15 11:05:05;;;;;;;12.32;6.45;;;;;;;10.49;52.25;100407.09;6227995;22;20015;-69
2022/10/15 11:07:40;;;;;;;15.82;6.25;;;;;;;10.67;52.70;100412.28;6227972;22;20299;-68
2022/10/15 11:10:17;;;;;;;11.98;5.75;;;;;;;10.80;52.64;100408.81;6227582;22;20026;-69
2022/10/15 11:13:09;;;;;;;10.98;6.03;;;;;;;10.86;52.35;100411.09;6229331;22;20011;-69
2022/10/15 11:15:52;;;;;;;12.23;5.72;;;;;;;10.91;52.31;100405.47;6229404;22;20028;-66
2022/10/15 11:18:29;;;;;;;15.63;6.28;;;;;;;10.80;52.11;100405.28;6229452;22;20381;-68
2022/10/15 11:21:23;;;;;;;17.17;6.50;;;;;;;10.77;52.61;100416.13;6239862;22;20043;-74
2022/10/15 11:24:13;;;;;;;12.18;6.07;;;;;;;10.65;52.28;100403.50;6178487;22;20019;-72
2022/10/15 11:27:16;;;;;;;12.35;5.32;;;;;;;10.75;53.07;100410.88;6231073;22;20447;-68
2022/10/15 11:29:54;;;;;;;12.07;6.88;;;;;;;10.62;51.96;100401.03;6231875;22;20039;-68
2022/10/15 11:32:39;;;;;;;12.45;6.60;;;;;;;10.51;52.25;100401.66;6229869;22;20043;-67
2022/10/15 11:35:29;;;;;;;12.30;6.03;;;;;;;10.54;52.39;100401.50;6229758;22;20401;-70
2022/10/15 11:38:32;;;;;;;10.52;5.55;;;;;;;10.63;52.19;100405.41;6202015;22;20030;-69
2022/10/15 11:41:09;;;;;;;10.48;6.30;;;;;;;10.47;52.32;100402.81;6052275;23;20520;-67
2022/10/15 11:44:03;;;;;;;14.18;6.63;;;;;;;10.48;52.67;100397.41;6077527;23;20446;-70
2022/10/15 11:46:46;;;;;;;11.00;5.35;;;;;;;10.38;51.89;100393.56;6042830;23;20022;-68